Аэропорт: Талаги. Архангельск

ICAO: ULAA

METAR:
2018/09/23 11:00
ULAA 231100Z 20002MPS 140V250 9999 -SHRA BKN011CB 12/11 Q0997 R26/290060 NOSIG RMK QFE746/0995
METAR:
2018/09/20 15:30
TAF TAF ULAA 201400Z 2015/2115 18005MPS 9999 BKN012 
      TEMPO 2015/2017 15005G10MPS 3100 -SHRA BKN007 BKN011CB 
     FM201700 20006MPS 3100 -RA BKN005 BKN011 
      TEMPO 2017/2106 23006G12MPS 1000 SHRA BR BKN003 BKN011CB 
     FM210600 23004G09MPS 9999 BKN012 
      TEMPO 2106/2112 25007G12MPS 3100 -SHRA BKN011CB